Time;durP1;ratioP1;P1;durP2;ratioP2;P2;SDS_P1;SDS_P2;PMS_P1;PMS_P2;Temp;Humidity;BMP_temperature;BMP_pressure;BME280_temperature;BME280_humidity;BME280_pressure;Samples;Min_cycle;Max_cycle;Signal;HPM_P1;HPM_P2
2022/08/03 00:02:57;;;;;;;5.68;3.50;;;14.90;99.90;;;;;;8295961;28;20021;-85
2022/08/03 00:06:57;;;;;;;10.75;3.90;;;14.80;99.90;;;;;;8297641;28;20033;-84
2022/08/03 00:10:59;;;;;;;4.57;3.53;;;14.80;99.90;;;;;;8306968;28;20044;-84
2022/08/03 00:14:59;;;;;;;7.93;4.00;;;14.70;99.90;;;;;;8299420;28;20022;-84
2022/08/03 00:19:01;;;;;;;4.28;3.80;;;14.70;99.90;;;;;;8299257;28;20437;-85
2022/08/03 00:23:01;;;;;;;4.68;3.55;;;14.70;99.90;;;;;;8296192;28;20026;-83
2022/08/03 00:27:02;;;;;;;3.72;3.33;;;14.70;99.90;;;;;;8296904;28;20080;-85
2022/08/03 00:31:03;;;;;;;7.03;3.53;;;14.70;99.90;;;;;;8295993;28;20045;-84
2022/08/03 00:35:04;;;;;;;5.13;3.67;;;14.70;99.90;;;;;;8297124;28;20532;-83
2022/08/03 00:39:04;;;;;;;7.22;4.03;;;14.60;99.90;;;;;;8297038;28;20501;-84
2022/08/03 00:43:06;;;;;;;5.13;3.75;;;14.60;99.90;;;;;;8297973;28;20370;-84
2022/08/03 00:47:09;;;;;;;4.63;3.97;;;14.50;99.90;;;;;;8302621;28;20026;-84
2022/08/03 00:51:09;;;;;;;5.95;3.78;;;14.50;99.90;;;;;;8295253;28;20052;-84
2022/08/03 00:55:10;;;;;;;4.50;3.42;;;14.40;99.90;;;;;;8305322;28;20025;-84
2022/08/03 00:59:13;;;;;;;7.68;3.35;;;14.50;99.90;;;;;;8305231;28;20022;-84
2022/08/03 01:03:13;;;;;;;5.47;3.53;;;14.40;99.90;;;;;;8293670;28;20521;-84
2022/08/03 01:07:32;;;;;;;5.90;3.58;;;14.30;99.90;;;;;;8300101;28;20058;-84
2022/08/03 01:11:57;;;;;;;7.28;4.03;;;14.30;99.90;;;;;;8297665;28;20064;-84
2022/08/03 01:16:19;;;;;;;5.40;3.80;;;14.00;99.90;;;;;;8291822;28;20116;-84
2022/08/03 01:20:23;;;;;;;5.78;4.40;;;14.00;99.90;;;;;;8295702;28;20021;-85
2022/08/03 01:24:32;;;;;;;5.50;4.45;;;14.00;99.90;;;;;;8295979;28;20037;-85
2022/08/03 01:29:06;;;;;;;5.40;4.05;;;14.10;99.90;;;;;;8295961;28;20022;-84
2022/08/03 01:33:21;;;;;;;4.95;4.13;;;14.10;99.90;;;;;;8345336;22;20514;-79
2022/08/03 01:37:26;;;;;;;7.00;4.40;;;14.10;99.90;;;;;;8324234;28;20517;-79
2022/08/03 01:41:34;;;;;;;5.75;3.42;;;14.00;99.90;;;;;;8324902;28;20018;-79
2022/08/03 01:45:36;;;;;;;5.57;3.88;;;14.00;99.90;;;;;;8300667;28;20018;-80
2022/08/03 01:49:39;;;;;;;4.50;3.95;;;14.00;99.90;;;;;;8304089;28;20049;-80
2022/08/03 01:53:43;;;;;;;6.47;3.55;;;13.70;99.90;;;;;;8310768;28;20021;-80
2022/08/03 01:57:46;;;;;;;5.88;3.65;;;13.70;99.90;;;;;;8305502;28;20025;-80
2022/08/03 02:01:48;;;;;;;5.13;4.32;;;13.60;99.90;;;;;;8303233;28;20017;-80
2022/08/03 02:05:50;;;;;;;6.85;4.22;;;13.50;99.90;;;;;;8300683;28;20087;-80
2022/08/03 02:09:53;;;;;;;5.80;3.75;;;13.50;99.90;;;;;;8314813;28;20541;-80
2022/08/03 02:13:55;;;;;;;6.47;4.82;;;13.40;99.90;;;;;;8311775;28;20036;-80
2022/08/03 02:17:57;;;;;;;8.23;4.47;;;13.30;99.90;;;;;;8305816;28;20381;-80
2022/08/03 02:21:58;;;;;;;6.03;4.45;;;13.50;99.90;;;;;;8305895;28;20101;-80
2022/08/03 02:26:03;;;;;;;7.72;4.53;;;13.50;99.90;;;;;;8312590;28;20020;-79
2022/08/03 02:30:08;;;;;;;6.03;4.03;;;13.70;99.90;;;;;;8304609;28;20026;-80
2022/08/03 02:34:13;;;;;;;6.88;3.60;;;13.70;99.90;;;;;;8313176;28;20048;-79
2022/08/03 02:38:15;;;;;;;7.88;3.60;;;13.50;99.90;;;;;;8304865;28;20088;-78
2022/08/03 02:42:20;;;;;;;5.70;3.72;;;13.40;99.90;;;;;;8304893;28;20024;-80
2022/08/03 02:46:27;;;;;;;4.95;4.13;;;13.40;99.90;;;;;;8311526;28;20510;-80
2022/08/03 02:50:29;;;;;;;6.15;4.38;;;13.30;99.90;;;;;;8321847;28;20029;-80
2022/08/03 02:54:31;;;;;;;4.68;3.92;;;13.20;99.90;;;;;;8320391;28;20072;-80
2022/08/03 02:58:33;;;;;;;6.50;4.18;;;13.40;99.90;;;;;;8317031;28;20022;-80
2022/08/03 03:02:34;;;;;;;7.55;4.30;;;13.40;99.90;;;;;;8307191;28;20402;-80
2022/08/03 03:06:37;;;;;;;6.38;3.78;;;13.30;99.90;;;;;;8304634;28;20624;-80
2022/08/03 03:10:38;;;;;;;4.60;3.80;;;13.20;99.90;;;;;;8324641;28;20018;-80
2022/08/03 03:14:39;;;;;;;8.15;4.50;;;13.10;99.90;;;;;;8306056;28;20029;-80
2022/08/03 03:18:42;;;;;;;6.90;5.97;;;13.00;99.90;;;;;;8318235;28;20029;-81
2022/08/03 03:22:43;;;;;;;10.75;5.55;;;13.00;99.90;;;;;;8301084;28;20029;-80
2022/08/03 03:26:44;;;;;;;7.20;6.35;;;12.80;99.90;;;;;;8289111;28;20493;-79
2022/08/03 03:30:45;;;;;;;7.32;6.40;;;12.90;99.90;;;;;;8299094;28;20045;-80
2022/08/03 03:34:46;;;;;;;8.20;6.22;;;13.00;99.90;;;;;;8299017;28;20030;-80
2022/08/03 03:38:47;;;;;;;5.32;4.80;;;13.10;99.90;;;;;;8296353;28;20425;-80
2022/08/03 03:42:48;;;;;;;9.68;4.78;;;13.20;99.90;;;;;;8311854;28;20100;-80
2022/08/03 03:46:49;;;;;;;5.30;4.38;;;13.20;99.90;;;;;;8300666;28;20025;-80
2022/08/03 03:50:50;;;;;;;6.63;5.00;;;13.10;99.90;;;;;;8303327;28;20026;-80
2022/08/03 03:54:50;;;;;;;8.30;3.97;;;13.30;99.90;;;;;;8307562;28;20035;-80
2022/08/03 03:58:51;;;;;;;5.85;4.03;;;13.40;99.90;;;;;;8309442;28;20021;-79
2022/08/03 04:02:52;;;;;;;5.90;4.03;;;13.30;99.90;;;;;;8311558;28;20482;-80
2022/08/03 04:11:24;;;;;;;5.22;3.97;;;13.10;99.90;;;;;;8304837;28;20482;-80
2022/08/03 04:15:27;;;;;;;8.63;3.70;;;13.00;99.90;;;;;;8308396;28;20026;-80
2022/08/03 04:19:43;;;;;;;8.48;4.35;;;12.90;99.90;;;;;;8310418;28;20025;-79
2022/08/03 04:23:48;;;;;;;6.32;4.30;;;12.90;99.90;;;;;;8310160;28;20494;-79
2022/08/03 04:27:51;;;;;;;5.53;4.70;;;13.00;99.90;;;;;;8298753;28;20034;-80
2022/08/03 04:31:54;;;;;;;5.30;4.45;;;13.10;99.90;;;;;;8294091;28;20390;-80
2022/08/03 04:35:58;;;;;;;4.05;3.65;;;13.40;99.90;;;;;;8302568;28;20021;-80
2022/08/03 04:40:02;;;;;;;6.85;3.75;;;13.50;99.90;;;;;;8298507;28;20028;-80
2022/08/03 04:44:05;;;;;;;6.43;4.32;;;13.60;99.90;;;;;;8310183;28;20501;-80
2022/08/03 04:48:06;;;;;;;5.80;3.83;;;13.60;99.90;;;;;;8301870;28;20049;-80
2022/08/03 04:52:08;;;;;;;6.00;4.13;;;13.80;99.90;;;;;;8300629;28;20057;-80
2022/08/03 04:56:09;;;;;;;5.18;3.65;;;14.10;99.90;;;;;;8306472;28;20013;-80
2022/08/03 05:00:10;;;;;;;3.95;3.30;;;14.30;99.90;;;;;;8310222;28;20025;-80
2022/08/03 05:04:11;;;;;;;4.03;3.55;;;14.50;99.90;;;;;;8298531;28;20494;-79
2022/08/03 05:08:11;;;;;;;4.13;3.38;;;14.70;99.90;;;;;;8301561;28;20021;-80
2022/08/03 05:12:12;;;;;;;3.63;3.22;;;15.10;99.90;;;;;;8320670;28;20032;-79
2022/08/03 05:16:13;;;;;;;6.25;2.97;;;15.30;99.90;;;;;;8303735;28;20105;-80
2022/08/03 05:20:14;;;;;;;4.10;2.92;;;15.60;99.90;;;;;;8299587;28;20072;-80
2022/08/03 05:24:14;;;;;;;3.97;2.83;;;15.90;99.90;;;;;;8296511;28;20026;-80
2022/08/03 05:28:15;;;;;;;4.55;3.20;;;16.00;99.90;;;;;;8304319;28;20499;-80
2022/08/03 05:32:16;;;;;;;3.13;2.83;;;16.30;99.90;;;;;;8298645;28;20037;-80
2022/08/03 05:36:17;;;;;;;6.40;3.00;;;16.40;99.90;;;;;;8297979;28;20486;-79
2022/08/03 05:40:18;;;;;;;5.40;2.83;;;16.80;99.90;;;;;;8304931;28;20160;-80
2022/08/03 05:44:19;;;;;;;3.72;2.83;;;17.10;99.90;;;;;;8293186;28;20801;-80
2022/08/03 05:48:19;;;;;;;3.38;2.65;;;17.40;99.90;;;;;;8292454;28;20034;-80
2022/08/03 05:52:20;;;;;;;2.97;2.45;;;17.70;99.90;;;;;;8297359;28;20564;-80
2022/08/03 05:56:23;;;;;;;4.28;2.95;;;17.90;99.90;;;;;;8301027;28;20041;-80
2022/08/03 06:00:23;;;;;;;3.05;2.13;;;18.80;99.90;;;;;;8294424;28;20077;-81
2022/08/03 06:04:24;;;;;;;3.15;2.45;;;20.20;99.90;;;;;;8299132;28;20036;-87
2022/08/03 06:08:25;;;;;;;3.53;2.63;;;21.40;99.90;;;;;;8299562;28;20433;-86
2022/08/03 06:12:25;;;;;;;2.85;2.50;;;22.40;99.90;;;;;;8306744;28;20029;-87
2022/08/03 06:16:26;;;;;;;2.65;2.40;;;23.10;99.90;;;;;;8302409;28;20025;-87
2022/08/03 06:20:26;;;;;;;3.90;2.58;;;24.20;99.90;;;;;;8304242;28;20029;-87
2022/08/03 06:24:27;;;;;;;5.00;2.80;;;25.30;99.90;;;;;;8315128;28;20501;-79
2022/08/03 06:28:28;;;;;;;3.65;2.70;;;25.80;99.90;;;;;;8301865;28;20448;-79
2022/08/03 06:32:28;;;;;;;4.88;2.60;;;26.10;99.90;;;;;;8305099;28;20034;-79
2022/08/03 06:36:30;;;;;;;4.53;2.70;;;26.50;99.90;;;;;;8299097;28;20516;-80
2022/08/03 06:40:33;;;;;;;3.00;2.50;;;27.00;99.90;;;;;;8307264;28;20052;-80
2022/08/03 06:44:34;;;;;;;2.90;2.30;;;27.10;99.90;;;;;;8311186;28;20088;-80
2022/08/03 06:48:35;;;;;;;3.15;2.50;;;27.40;99.90;;;;;;8310320;28;20039;-79
2022/08/03 06:52:35;;;;;;;3.55;2.53;;;27.70;99.90;;;;;;8300067;28;20026;-80
2022/08/03 06:56:36;;;;;;;3.45;2.40;;;28.20;99.90;;;;;;8299886;28;20116;-80
2022/08/03 07:00:36;;;;;;;4.45;2.30;;;29.10;99.90;;;;;;8301652;28;20036;-80
2022/08/03 07:04:37;;;;;;;3.08;2.40;;;29.30;99.90;;;;;;8300509;28;20053;-80
2022/08/03 07:08:38;;;;;;;2.90;2.33;;;29.50;99.90;;;;;;8298255;28;20029;-81
2022/08/03 07:12:40;;;;;;;2.40;2.20;;;29.20;99.90;;;;;;8300381;28;20037;-81
2022/08/03 07:16:40;;;;;;;3.83;2.25;;;29.10;99.90;;;;;;8306439;28;20029;-80
2022/08/03 07:20:41;;;;;;;3.85;2.33;;;28.80;99.90;;;;;;8314206;28;20057;-80
2022/08/03 07:24:42;;;;;;;3.60;2.40;;;28.80;99.90;;;;;;8299200;28;20029;-80
2022/08/03 07:28:42;;;;;;;2.78;2.40;;;28.60;99.90;;;;;;8321849;28;20033;-80
2022/08/03 07:32:43;;;;;;;2.20;2.00;;;28.60;99.90;;;;;;8300858;28;20111;-80
2022/08/03 07:36:43;;;;;;;3.45;2.13;;;28.60;99.90;;;;;;8311431;28;20073;-80
2022/08/03 07:40:44;;;;;;;2.70;2.15;;;28.70;99.90;;;;;;8300271;28;20033;-77
2022/08/03 07:44:44;;;;;;;1.90;1.80;;;28.80;99.90;;;;;;8303414;28;20401;-77
2022/08/03 07:48:45;;;;;;;3.10;1.83;;;28.90;99.90;;;;;;8299607;28;20018;-78
2022/08/03 07:52:48;;;;;;;4.68;1.80;;;29.00;99.90;;;;;;8298208;28;20112;-78
2022/08/03 07:56:49;;;;;;;2.85;1.90;;;29.70;99.90;;;;;;8300806;28;20499;-78
2022/08/03 08:00:51;;;;;;;2.10;1.90;;;30.00;99.90;;;;;;8308119;28;20264;-78
2022/08/03 08:04:52;;;;;;;3.45;1.50;;;30.60;99.90;;;;;;8317654;28;20022;-78
2022/08/03 08:08:53;;;;;;;4.43;1.50;;;30.20;99.10;;;;;;8306602;28;20052;-79
2022/08/03 08:12:55;;;;;;;1.83;1.52;;;30.80;99.90;;;;;;8297410;28;20031;-78
2022/08/03 08:16:56;;;;;;;1.40;1.17;;;30.90;99.90;;;;;;8303090;28;20025;-79
2022/08/03 08:20:57;;;;;;;2.53;1.55;;;31.20;93.00;;;;;;8301274;28;20017;-78
2022/08/03 08:24:58;;;;;;;1.50;1.30;;;30.90;94.20;;;;;;8303165;28;20045;-78
2022/08/03 08:28:58;;;;;;;1.60;1.35;;;30.80;95.70;;;;;;8300938;28;20399;-77
2022/08/03 08:32:59;;;;;;;2.40;1.38;;;31.00;92.30;;;;;;8298602;28;20053;-79
2022/08/03 08:37:00;;;;;;;1.30;1.20;;;30.90;94.40;;;;;;8302427;28;20048;-79
2022/08/03 08:41:01;;;;;;;2.47;1.27;;;31.40;94.70;;;;;;8300848;28;20539;-79
2022/08/03 08:45:05;;;;;;;1.20;1.10;;;31.60;90.60;;;;;;8303987;28;20033;-79
2022/08/03 08:49:08;;;;;;;3.03;1.33;;;31.50;91.00;;;;;;8303427;28;20390;-78
2022/08/03 08:53:11;;;;;;;1.75;1.27;;;31.20;90.20;;;;;;8304926;28;20084;-78
2022/08/03 08:57:12;;;;;;;2.90;1.30;;;30.90;91.00;;;;;;8295345;28;20034;-79
2022/08/03 09:01:12;;;;;;;1.90;1.23;;;31.10;94.00;;;;;;8316745;28;20439;-78
2022/08/03 09:05:17;;;;;;;1.40;1.30;;;31.30;91.80;;;;;;8295398;28;20084;-78
2022/08/03 09:09:18;;;;;;;1.10;1.00;;;31.50;91.40;;;;;;8316774;28;20037;-78
2022/08/03 09:13:18;;;;;;;3.92;2.67;;;31.40;91.80;;;;;;8289941;28;21281;-78
2022/08/03 09:17:19;;;;;;;1.95;1.08;;;31.30;91.80;;;;;;8298754;28;20025;-78
2022/08/03 09:21:25;;;;;;;2.00;0.90;;;31.20;84.10;;;;;;8301456;28;20028;-78
2022/08/03 09:25:32;;;;;;;1.00;0.90;;;31.30;86.50;;;;;;8302368;28;20021;-78
2022/08/03 09:29:33;;;;;;;1.50;1.15;;;31.40;84.10;;;;;;8288991;28;20494;-78
2022/08/03 09:33:46;;;;;;;1.25;1.15;;;31.30;82.40;;;;;;8295873;28;20041;-77
2022/08/03 09:38:14;;;;;;;1.17;1.00;;;31.10;91.20;;;;;;8299668;28;20030;-78
2022/08/03 09:42:16;;;;;;;1.10;0.80;;;30.70;82.50;;;;;;8296821;28;20040;-78
2022/08/03 09:46:17;;;;;;;1.15;1.05;;;30.40;83.60;;;;;;8302001;28;20033;-78
2022/08/03 09:50:18;;;;;;;2.28;1.10;;;30.80;84.10;;;;;;8291825;28;20030;-78
2022/08/03 09:54:29;;;;;;;1.90;1.08;;;30.80;83.20;;;;;;8299232;28;20080;-78
2022/08/03 09:58:30;;;;;;;1.10;1.00;;;30.90;87.10;;;;;;8304260;28;20068;-78
2022/08/03 10:02:31;;;;;;;1.55;1.20;;;30.80;79.40;;;;;;8308966;28;20026;-77
2022/08/03 10:06:32;;;;;;;1.52;1.20;;;30.70;84.80;;;;;;8297010;28;20138;-78
2022/08/03 10:10:42;;;;;;;1.25;1.00;;;30.50;80.30;;;;;;8300607;28;20110;-79
2022/08/03 10:14:44;;;;;;;1.48;1.00;;;30.30;81.90;;;;;;8301441;28;20018;-77
2022/08/03 10:18:45;;;;;;;1.23;0.82;;;30.20;84.70;;;;;;8306211;28;20037;-78
2022/08/03 10:22:46;;;;;;;2.20;1.10;;;30.30;88.30;;;;;;8306461;28;20026;-78
2022/08/03 10:26:49;;;;;;;1.10;1.00;;;30.60;82.00;;;;;;8306788;28;20052;-78
2022/08/03 10:30:52;;;;;;;1.20;1.10;;;30.70;85.10;;;;;;8298304;28;20503;-78
2022/08/03 10:35:01;;;;;;;3.85;1.00;;;30.80;79.80;;;;;;8304893;28;20029;-78
2022/08/03 10:39:02;;;;;;;1.38;1.10;;;30.90;73.30;;;;;;8305152;28;20449;-80
2022/08/03 10:43:08;;;;;;;1.00;0.88;;;31.10;79.90;;;;;;8304495;28;20405;-78
2022/08/03 10:47:10;;;;;;;1.23;0.90;;;31.40;77.70;;;;;;8304422;28;20095;-79
2022/08/03 10:51:12;;;;;;;1.15;0.98;;;32.50;68.70;;;;;;8303528;28;20030;-78
2022/08/03 10:59:57;;;;;;;1.05;0.90;;;33.20;69.00;;;;;;8307978;28;20037;-79
2022/08/03 11:03:57;;;;;;;1.23;1.13;;;34.60;59.40;;;;;;8308570;28;20485;-78
2022/08/03 11:08:35;;;;;;;1.00;0.90;;;33.60;59.60;;;;;;8311109;28;20032;-78
2022/08/03 11:12:36;;;;;;;1.67;1.00;;;34.10;60.20;;;;;;8303397;28;20088;-79
2022/08/03 11:16:40;;;;;;;1.25;0.90;;;34.90;53.10;;;;;;8313332;28;20022;-80
2022/08/03 11:20:58;;;;;;;1.30;0.85;;;35.20;57.40;;;;;;8304538;28;20030;-79
2022/08/03 11:24:59;;;;;;;2.38;1.00;;;35.00;55.90;;;;;;8302619;28;20022;-79
2022/08/03 11:29:28;;;;;;;2.13;1.20;;;33.70;57.60;;;;;;8294486;28;20030;-80
2022/08/03 11:33:30;;;;;;;2.03;0.85;;;34.20;54.60;;;;;;8295737;28;20466;-80
2022/08/03 11:37:30;;;;;;;1.25;1.10;;;35.40;52.00;;;;;;8300582;28;20112;-79
2022/08/03 11:41:33;;;;;;;1.20;1.10;;;36.60;54.30;;;;;;8302045;28;20533;-80
2022/08/03 11:45:35;;;;;;;1.05;0.80;;;36.90;49.90;;;;;;8307400;28;20509;-80
2022/08/03 11:49:37;;;;;;;1.40;1.10;;;36.50;53.10;;;;;;8307306;28;20049;-80
2022/08/03 11:53:39;;;;;;;1.58;1.10;;;35.70;52.00;;;;;;8294762;28;20034;-80
2022/08/03 11:57:40;;;;;;;2.00;1.00;;;35.90;54.30;;;;;;8298459;28;20029;-83
2022/08/03 12:01:40;;;;;;;0.73;0.73;;;35.60;50.90;;;;;;8309006;28;20030;-82
2022/08/03 12:05:49;;;;;;;1.30;0.85;;;36.30;48.30;;;;;;8316177;28;20026;-82
2022/08/03 12:10:10;;;;;;;3.53;1.07;;;38.00;52.60;;;;;;8307788;28;20035;-82
2022/08/03 12:14:16;;;;;;;1.00;0.90;;;38.50;43.60;;;;;;8299961;28;20018;-82
2022/08/03 12:18:17;;;;;;;1.65;0.88;;;38.20;47.40;;;;;;8299147;28;20041;-82
2022/08/03 12:22:33;;;;;;;1.08;0.90;;;39.10;43.40;;;;;;8299604;28;20025;-82
2022/08/03 12:26:49;;;;;;;2.08;1.00;;;39.60;44.50;;;;;;8301630;28;20386;-82
2022/08/03 12:30:51;;;;;;;2.22;1.00;;;38.80;47.80;;;;;;8298040;28;20045;-82
2022/08/03 12:34:52;;;;;;;1.10;0.90;;;37.90;47.30;;;;;;8295800;28;20041;-82
2022/08/03 12:39:02;;;;;;;3.25;1.23;;;37.10;44.30;;;;;;8304046;28;20029;-82
2022/08/03 12:43:11;;;;;;;1.63;1.13;;;37.50;49.00;;;;;;8309426;28;20022;-80
2022/08/03 12:47:11;;;;;;;1.50;0.90;;;38.20;44.60;;;;;;8308892;28;20444;-80
2022/08/03 12:51:12;;;;;;;1.20;1.02;;;38.20;45.80;;;;;;8295714;28;20052;-80
2022/08/03 12:55:19;;;;;;;1.20;1.10;;;38.40;48.60;;;;;;8294790;28;20026;-81
2022/08/03 12:59:25;;;;;;;1.33;0.98;;;39.40;46.10;;;;;;8300832;28;20021;-81
2022/08/03 13:03:25;;;;;;;1.23;1.00;;;39.80;41.70;;;;;;8295401;28;20040;-79
2022/08/03 13:07:26;;;;;;;1.83;1.13;;;41.30;42.80;;;;;;8296753;28;20037;-80
2022/08/03 13:11:27;;;;;;;1.30;1.20;;;40.10;42.60;;;;;;8295770;28;20030;-79
2022/08/03 13:15:28;;;;;;;1.58;1.05;;;38.80;41.20;;;;;;8301453;28;20029;-80
2022/08/03 13:19:31;;;;;;;1.05;0.95;;;39.80;41.40;;;;;;8296222;28;20026;-80
2022/08/03 13:23:32;;;;;;;2.05;0.90;;;41.40;36.60;;;;;;8306551;28;20018;-80
2022/08/03 13:27:33;;;;;;;1.08;0.98;;;42.20;36.80;;;;;;8295273;28;20030;-80
2022/08/03 13:31:33;;;;;;;1.55;1.10;;;41.70;37.20;;;;;;8290012;28;20794;-80
2022/08/03 13:35:34;;;;;;;1.08;0.82;;;41.30;36.70;;;;;;8298797;28;20501;-80
2022/08/03 13:39:35;;;;;;;1.95;1.05;;;41.50;38.60;;;;;;8299137;28;20018;-81
2022/08/03 13:43:35;;;;;;;1.52;0.90;;;42.40;38.40;;;;;;8307595;28;20544;-80
2022/08/03 13:47:36;;;;;;;1.45;1.08;;;40.40;39.20;;;;;;8306373;28;20030;-80
2022/08/03 13:51:37;;;;;;;1.38;0.95;;;40.50;38.80;;;;;;8298902;28;20034;-81
2022/08/03 13:55:38;;;;;;;1.27;1.08;;;41.20;38.70;;;;;;8311446;28;20397;-79
2022/08/03 13:59:38;;;;;;;1.48;1.08;;;39.50;41.00;;;;;;8306366;28;20108;-81
2022/08/03 14:03:39;;;;;;;1.50;1.10;;;40.20;42.40;;;;;;8309966;28;20022;-81
2022/08/03 14:07:39;;;;;;;2.15;0.93;;;42.10;38.40;;;;;;8303371;28;20405;-81
2022/08/03 14:11:42;;;;;;;1.55;1.17;;;43.90;36.00;;;;;;8298415;28;20494;-82
2022/08/03 14:15:42;;;;;;;0.80;0.80;;;44.40;34.40;;;;;;8296989;28;20108;-81
2022/08/03 14:19:43;;;;;;;1.10;1.00;;;41.60;39.50;;;;;;8297579;28;20025;-81
2022/08/03 14:23:44;;;;;;;1.10;1.00;;;39.40;41.00;;;;;;8299103;28;20040;-81
2022/08/03 14:27:44;;;;;;;1.02;0.93;;;40.40;39.70;;;;;;8298426;28;20069;-81
2022/08/03 14:31:45;;;;;;;1.48;1.00;;;40.20;39.40;;;;;;8297195;28;20030;-81
2022/08/03 14:35:45;;;;;;;2.08;1.00;;;40.90;39.00;;;;;;8299478;28;20034;-80
2022/08/03 14:39:46;;;;;;;1.50;1.10;;;42.10;36.30;;;;;;8304257;28;20014;-80
2022/08/03 14:43:47;;;;;;;1.83;1.10;;;42.10;36.30;;;;;;8302444;28;20106;-80
2022/08/03 14:47:48;;;;;;;3.15;1.13;;;41.30;39.90;;;;;;8308970;28;20125;-81
2022/08/03 14:51:48;;;;;;;1.33;1.10;;;42.80;34.40;;;;;;8298427;28;20022;-81
2022/08/03 14:55:49;;;;;;;4.00;1.10;;;43.30;38.40;;;;;;8297577;28;21985;-80
2022/08/03 14:59:50;;;;;;;1.10;1.00;;;42.30;37.30;;;;;;8302931;28;20026;-81
2022/08/03 15:03:50;;;;;;;1.95;1.08;;;42.20;34.60;;;;;;8314723;28;20029;-78
2022/08/03 15:07:51;;;;;;;0.80;0.80;;;41.60;37.90;;;;;;8307307;28;20425;-78
2022/08/03 15:11:51;;;;;;;1.63;0.93;;;42.60;34.30;;;;;;8300995;28;20021;-79
2022/08/03 15:15:52;;;;;;;1.08;0.93;;;43.80;33.10;;;;;;8306875;28;20037;-79
2022/08/03 15:19:52;;;;;;;1.85;1.00;;;44.70;33.00;;;;;;8305364;28;20480;-79
2022/08/03 15:23:53;;;;;;;0.93;0.93;;;45.00;30.60;;;;;;8301256;28;20080;-79
2022/08/03 15:27:54;;;;;;;4.53;1.13;;;44.70;31.30;;;;;;8300146;28;20471;-79
2022/08/03 15:31:54;;;;;;;1.92;0.95;;;44.80;32.40;;;;;;8303767;28;20029;-80
2022/08/03 15:35:55;;;;;;;2.58;1.10;;;45.10;31.10;;;;;;8301630;28;20029;-80
2022/08/03 15:39:56;;;;;;;1.10;1.00;;;45.30;32.40;;;;;;8293672;28;20029;-79
2022/08/03 15:43:56;;;;;;;1.73;0.93;;;44.30;30.30;;;;;;8294584;28;20312;-79
2022/08/03 15:47:57;;;;;;;2.28;1.10;;;41.90;33.60;;;;;;8292876;28;20037;-79
2022/08/03 15:51:58;;;;;;;2.03;1.10;;;38.00;41.50;;;;;;8297899;28;20030;-79
2022/08/03 15:55:59;;;;;;;1.98;0.95;;;34.90;46.40;;;;;;8297259;28;20068;-79
2022/08/03 16:00:00;;;;;;;1.45;1.10;;;33.50;43.50;;;;;;8296703;28;20029;-78
2022/08/03 16:04:00;;;;;;;3.58;1.10;;;32.70;55.30;;;;;;8307771;28;20460;-79
2022/08/03 16:08:01;;;;;;;3.38;1.10;;;32.00;54.00;;;;;;8297157;28;20113;-78
2022/08/03 16:12:01;;;;;;;1.75;1.30;;;31.00;53.70;;;;;;8295473;28;20022;-78
2022/08/03 16:16:05;;;;;;;1.25;1.10;;;30.70;54.90;;;;;;8306550;28;20029;-79
2022/08/03 16:20:07;;;;;;;1.58;1.27;;;30.50;59.70;;;;;;8298723;28;20034;-78
2022/08/03 16:24:08;;;;;;;3.30;1.10;;;30.30;58.20;;;;;;8299373;28;20432;-78
2022/08/03 16:28:08;;;;;;;1.65;1.17;;;30.30;58.80;;;;;;8297674;28;20060;-77
2022/08/03 16:32:10;;;;;;;3.78;1.17;;;30.10;59.60;;;;;;8298743;28;20091;-79
2022/08/03 16:36:10;;;;;;;4.28;1.30;;;30.00;56.00;;;;;;8301997;28;20022;-78
2022/08/03 16:40:12;;;;;;;2.17;1.50;;;29.90;61.30;;;;;;8304693;28;20079;-78
2022/08/03 16:44:12;;;;;;;3.25;1.33;;;29.60;59.80;;;;;;8303314;28;20129;-78
2022/08/03 16:48:14;;;;;;;2.28;1.05;;;29.40;64.30;;;;;;8295696;28;20398;-78
2022/08/03 16:52:14;;;;;;;2.53;1.30;;;29.60;54.50;;;;;;8300570;28;20028;-78
2022/08/03 16:56:15;;;;;;;1.23;1.02;;;30.20;61.50;;;;;;8319096;28;20101;-78
2022/08/03 17:00:15;;;;;;;4.13;1.27;;;30.80;58.60;;;;;;8304047;28;20022;-78
2022/08/03 17:04:17;;;;;;;1.83;1.30;;;29.80;61.50;;;;;;8306582;28;20017;-78
2022/08/03 17:08:18;;;;;;;2.08;1.23;;;28.80;61.70;;;;;;8302710;28;20478;-78
2022/08/03 17:12:18;;;;;;;4.80;1.33;;;28.30;63.80;;;;;;8310251;28;20018;-78
2022/08/03 17:16:19;;;;;;;2.50;1.20;;;27.80;68.60;;;;;;8300074;28;20030;-78
2022/08/03 17:20:22;;;;;;;3.00;1.50;;;27.50;65.50;;;;;;8299934;28;20175;-78
2022/08/03 17:24:34;;;;;;;2.42;1.13;;;27.20;70.00;;;;;;8295846;28;20112;-80
2022/08/03 17:28:45;;;;;;;1.30;1.05;;;26.80;70.80;;;;;;8284240;28;20141;-79
2022/08/03 17:32:46;;;;;;;;;;;26.50;70.50;;;;;;8293718;28;20026;-78
2022/08/03 17:36:47;;;;;;;1.40;1.13;;;26.20;69.70;;;;;;8306148;28;20278;-78
2022/08/03 17:40:48;;;;;;;2.63;1.27;;;26.10;70.90;;;;;;8292104;28;20521;-78
2022/08/03 17:44:51;;;;;;;1.65;1.20;;;26.00;71.60;;;;;;8290749;28;20038;-78
2022/08/03 17:48:52;;;;;;;1.30;1.20;;;25.80;74.10;;;;;;8296645;28;20067;-79
2022/08/03 17:53:03;;;;;;;2.53;1.20;;;25.60;74.40;;;;;;8298161;28;20017;-79
2022/08/03 17:57:30;;;;;;;2.83;1.30;;;25.50;74.20;;;;;;8298441;28;20477;-77
2022/08/03 18:06:15;;;;;;;1.55;1.25;;;25.40;73.80;;;;;;8295601;28;20032;-78
2022/08/03 18:10:22;;;;;;;3.15;1.13;;;25.40;76.80;;;;;;8294047;28;20018;-79
2022/08/03 18:14:28;;;;;;;1.63;1.30;;;25.30;78.70;;;;;;8301317;28;20030;-80
2022/08/03 18:18:34;;;;;;;2.50;1.02;;;25.30;79.60;;;;;;8300995;28;20022;-79
2022/08/03 18:22:35;;;;;;;2.55;2.20;;;25.10;83.20;;;;;;8301857;28;20033;-80
2022/08/03 18:26:36;;;;;;;5.45;2.55;;;25.10;83.10;;;;;;8299551;28;20026;-80
2022/08/03 18:30:40;;;;;;;3.58;2.90;;;24.70;89.20;;;;;;8298037;28;20091;-80
2022/08/03 18:34:43;;;;;;;3.55;2.50;;;24.30;91.80;;;;;;8300242;28;20049;-79
2022/08/03 18:38:46;;;;;;;3.72;2.60;;;24.10;91.90;;;;;;8299150;28;20026;-79
2022/08/03 18:42:46;;;;;;;3.05;2.55;;;23.90;93.70;;;;;;8315479;28;20030;-80
2022/08/03 18:47:08;;;;;;;3.60;2.83;;;23.70;95.10;;;;;;8306000;28;20040;-79
2022/08/03 18:51:15;;;;;;;3.95;3.30;;;23.70;96.40;;;;;;8293279;28;20029;-80
2022/08/03 18:55:19;;;;;;;7.05;3.25;;;23.50;98.80;;;;;;8299621;28;20037;-80
2022/08/03 18:59:43;;;;;;;8.23;3.78;;;23.40;99.90;;;;;;8296981;28;20030;-80
2022/08/03 19:03:49;;;;;;;4.82;3.50;;;23.20;99.90;;;;;;8297440;28;20117;-79
2022/08/03 19:07:58;;;;;;;3.85;2.97;;;22.80;99.90;;;;;;8297939;28;20034;-80
2022/08/03 19:12:05;;;;;;;6.35;2.17;;;22.50;99.90;;;;;;8304902;28;20525;-79
2022/08/03 19:16:12;;;;;;;3.75;2.42;;;22.00;99.90;;;;;;8304580;28;20026;-79
2022/08/03 19:20:12;;;;;;;7.50;3.17;;;21.80;99.90;;;;;;8315220;28;20140;-88
2022/08/03 19:24:15;;;;;;;7.80;3.53;;;21.70;99.90;;;;;;8300984;28;20029;-88
2022/08/03 19:28:17;;;;;;;5.90;3.45;;;21.50;99.90;;;;;;8314116;28;20112;-88
2022/08/03 19:32:20;;;;;;;6.38;3.45;;;21.00;99.90;;;;;;8318741;28;20501;-89
2022/08/03 19:36:21;;;;;;;5.32;3.33;;;20.60;99.90;;;;;;8316979;28;20490;-88
2022/08/03 19:40:22;;;;;;;8.63;3.50;;;20.60;99.90;;;;;;8309170;28;20022;-89
2022/08/03 19:44:28;;;;;;;10.02;3.83;;;20.50;99.90;;;;;;8313138;28;20026;-89
2022/08/03 19:48:32;;;;;;;4.40;3.80;;;20.40;99.90;;;;;;8310993;28;20030;-78
2022/08/03 19:52:35;;;;;;;4.43;3.40;;;20.40;99.90;;;;;;8299149;28;20018;-77
2022/08/03 19:56:42;;;;;;;5.63;3.00;;;20.30;99.90;;;;;;8302019;28;20026;-78
2022/08/03 20:00:43;;;;;;;3.90;3.15;;;20.20;99.90;;;;;;8302262;28;20065;-78
2022/08/03 20:04:43;;;;;;;4.43;2.22;;;20.10;99.90;;;;;;8317889;28;20025;-78
2022/08/03 20:08:44;;;;;;;2.90;2.15;;;20.20;99.90;;;;;;8309571;28;20723;-78
2022/08/03 20:12:46;;;;;;;2.17;1.98;;;20.10;99.90;;;;;;8321282;28;20034;-78
2022/08/03 20:16:47;;;;;;;7.03;2.08;;;20.00;99.90;;;;;;8310892;28;20022;-77
2022/08/03 20:20:50;;;;;;;2.15;1.67;;;19.80;99.90;;;;;;8302689;28;20047;-77
2022/08/03 20:24:53;;;;;;;3.90;1.92;;;19.90;99.90;;;;;;8295848;28;20149;-77
2022/08/03 20:28:59;;;;;;;4.53;2.28;;;20.00;99.90;;;;;;8312999;28;20057;-77
2022/08/03 20:33:00;;;;;;;5.50;2.00;;;19.90;99.90;;;;;;8302354;28;20029;-77
2022/08/03 20:37:01;;;;;;;3.28;1.88;;;19.70;99.90;;;;;;8309656;28;20103;-77
2022/08/03 20:41:03;;;;;;;4.32;2.15;;;19.70;99.90;;;;;;8304287;28;20668;-77
2022/08/03 20:45:03;;;;;;;6.57;2.00;;;19.50;99.90;;;;;;8311734;28;20022;-77
2022/08/03 20:49:05;;;;;;;1.92;1.75;;;19.20;99.90;;;;;;8303444;28;20116;-77
2022/08/03 20:53:06;;;;;;;7.85;2.38;;;19.20;99.90;;;;;;8308585;28;20075;-77
2022/08/03 20:57:10;;;;;;;7.70;2.72;;;19.20;99.90;;;;;;8305389;28;20502;-77
2022/08/03 21:01:10;;;;;;;6.32;2.72;;;18.90;99.90;;;;;;8305756;28;20037;-77
2022/08/03 21:05:11;;;;;;;3.30;2.15;;;18.60;99.90;;;;;;8308086;28;20057;-77
2022/08/03 21:09:22;;;;;;;2.80;2.17;;;18.60;99.90;;;;;;8302694;28;20018;-77
2022/08/03 21:13:34;;;;;;;2.22;2.00;;;18.40;99.90;;;;;;8306714;28;20024;-77
2022/08/03 21:17:44;;;;;;;7.82;2.20;;;18.30;99.90;;;;;;8311872;28;20022;-77
2022/08/03 21:21:46;;;;;;;6.00;2.20;;;18.40;99.90;;;;;;8311177;28;20053;-77